M I D A S
Marine Information and Data Acquisition System
Tripno 1998 of the Zeeleeuw from 2010-11-29 08:01:01 to 2010-11-29 15:53:27
Back to CruiseResearch ActivitiesStationsMapUnderway DataData graphs

EquipmentUnitsComment
TimeDGPSUTC
LatitudeDGPSDM.mWGS84
LongitudeDGPSDM.mWGS84
HeadingGyrodeg 
SOGDGPSknotsSpeed over ground
COGDGPSdegCourse over ground
DepthEcho soundermeters200 kHz
Missing or incorrect values are displayed as -999
Navigation data collected by the RV Zeeleeuw from 2010-11-29 07:42:19 to 2010-11-29 16:04:58
Time Latitude Longitude Heading SOG COG Depth
2010-11-29 07:43:25 51°13.662 2°55.96 125.8 0.1 296 9.3
2010-11-29 07:44:24 51°13.662 2°55.959 122.7 0.1 338 9.3
2010-11-29 07:45:25 51°13.662 2°55.958 122 0.1 210 9.3
2010-11-29 07:46:25 51°13.662 2°55.959 125.2 -999 213 9.3
2010-11-29 07:47:25 51°13.662 2°55.96 126.3 0.1 68 9.2
2010-11-29 07:48:25 51°13.662 2°55.959 127.6 -999 331 9.4
2010-11-29 07:49:24 51°13.663 2°55.96 127.1 -999 256 9.2
2010-11-29 07:50:24 51°13.662 2°55.96 127.1 0.1 286 9.1
2010-11-29 07:51:24 51°13.662 2°55.96 127.1 -999 17 9.1
2010-11-29 07:52:25 51°13.661 2°55.96 127.9 0.1 36 9.2
2010-11-29 07:53:24 51°13.661 2°55.959 128.1 0.1 59 9.2
2010-11-29 07:54:24 51°13.662 2°55.96 117.3 0.1 159 9.2
2010-11-29 07:55:24 51°13.664 2°55.951 107 1.4 299 9.2
2010-11-29 07:56:28 51°13.679 2°55.878 102.8 3.8 284 -999
2010-11-29 07:57:28 51°13.689 2°55.777 92.7 3.5 274 15.2
2010-11-29 07:58:27 51°13.693 2°55.73 65 0.5 41 14.9
2010-11-29 07:59:25 51°13.7 2°55.732 18 0.9 213 14.5
2010-11-29 08:00:25 51°13.705 2°55.72 346.3 2.4 340 15.9
2010-11-29 08:01:24 51°13.776 2°55.667 333.3 5 333 13
2010-11-29 08:01:44 51°13.81 2°55.644 334.4 0.1 155 13.2
2010-11-29 08:03:25 51°13.81 2°55.644 335.9 -999 154 12.7
2010-11-29 08:04:24 51°14.153 2°55.382 332.6 9.7 332 12.6
2010-11-29 08:05:24 51°14.297 2°55.249 330.3 10.2 329 12.4
2010-11-29 08:06:24 51°14.441 2°55.103 327.8 10.1 327 11.9
2010-11-29 08:07:24 51°14.587 2°54.942 325.9 11.3 327 13
2010-11-29 08:08:25 51°14.747 2°54.754 322.3 12.3 323 12.5
2010-11-29 08:09:24 51°14.92 2°54.562 324 13.1 327 12.4
2010-11-29 08:10:25 51°15.107 2°54.365 323.9 13.4 326 12.4
2010-11-29 08:11:24 51°15.283 2°54.165 321.4 13.2 323 13.5
2010-11-29 08:12:24 51°15.46 2°53.96 322.7 13.2 324 12.6
2010-11-29 08:13:24 51°15.639 2°53.756 323.1 13.3 325 12.3
2010-11-29 08:14:24 51°15.82 2°53.552 322.8 13.4 325 13
2010-11-29 08:15:25 51°16.012 2°53.363 328.2 13.4 330 12.8
2010-11-29 08:16:24 51°16.206 2°53.199 330 13.4 332 13.7
2010-11-29 08:17:25 51°16.403 2°53.03 329.5 12.8 331 12.7
2010-11-29 08:18:24 51°16.595 2°52.867 328.5 13.3 333 12.6
2010-11-29 08:19:25 51°16.795 2°52.697 329.4 13.3 332 10.9
2010-11-29 08:20:24 51°16.991 2°52.532 329.9 13.5 332 11.5
2010-11-29 08:21:24 51°17.187 2°52.364 329.3 13.2 331 11.2
2010-11-29 08:22:24 51°17.384 2°52.19 326.9 13.6 328 13
2010-11-29 08:23:24 51°17.57 2°51.994 325 13.3 327 11.6
2010-11-29 08:24:24 51°17.759 2°51.804 326.6 13.7 329 11.2
2010-11-29 08:25:24 51°17.95 2°51.613 326 13.6 327 12.1
2010-11-29 08:26:24 51°18.138 2°51.418 325.6 13.2 327 12.6
2010-11-29 08:27:24 51°18.325 2°51.224 325.5 13.5 329 14.3
2010-11-29 08:28:24 51°18.512 2°51.029 325.2 13.4 327 14.8
2010-11-29 08:29:24 51°18.699 2°50.833 325.1 13.5 327 15.9
2010-11-29 08:30:24 51°18.886 2°50.636 324.6 13 326 15.2
2010-11-29 08:31:24 51°19.071 2°50.441 325 13.2 326 13.9
2010-11-29 08:32:24 51°19.255 2°50.242 325.3 13.5 326 12.6
2010-11-29 08:33:25 51°19.44 2°50.037 322 12.4 322 12
2010-11-29 08:34:24 51°19.62 2°49.84 324.2 13.3 324 15.8
2010-11-29 08:35:24 51°19.8 2°49.638 323.1 13.1 324 16.7
2010-11-29 08:36:24 51°19.99 2°49.458 335.1 13.5 335 20
2010-11-29 08:37:24 51°20.199 2°49.337 340.7 13.2 340 22.1
2010-11-29 08:38:24 51°20.411 2°49.236 351.1 13.4 353 24.6
2010-11-29 08:39:24 51°20.63 2°49.286 17.5 13.7 17 24.6
2010-11-29 08:40:24 51°20.844 2°49.399 20.1 13.4 19 23.5
2010-11-29 08:41:24 51°21.055 2°49.516 20.3 13.4 20 23.2
2010-11-29 08:42:24 51°21.27 2°49.632 17.8 13.5 16 23.1
2010-11-29 08:43:24 51°21.494 2°49.691 4.8 13.7 3 23
2010-11-29 08:44:24 51°21.721 2°49.669 350.8 13.8 349 24.2
2010-11-29 08:45:24 51°21.924 2°49.523 321.5 13.6 323 25.1
2010-11-29 08:46:24 51°22.066 2°49.257 304.2 13.1 308 24.4
2010-11-29 08:47:24 51°22.205 2°48.985 309.3 13 310 24.4
2010-11-29 08:48:24 51°22.349 2°48.722 309.1 13.1 310 21
2010-11-29 08:49:25 51°22.495 2°48.455 309.3 13 314 18.5
2010-11-29 08:50:24 51°22.636 2°48.191 308.8 13.4 312 18.5
2010-11-29 08:51:25 51°22.794 2°47.931 310.6 13.7 318 17.6
2010-11-29 08:52:24 51°22.941 2°47.673 307 13.7 312 21.5
2010-11-29 08:53:25 51°23.087 2°47.401 306.2 13.2 312 21.7
2010-11-29 08:54:24 51°23.225 2°47.132 304.6 13.1 305 21.3
2010-11-29 08:55:24 51°23.367 2°46.858 307.6 13.4 311 24.8
2010-11-29 08:56:25 51°23.511 2°46.578 307.3 13.4 306 26.4
2010-11-29 08:57:24 51°23.643 2°46.3 304.5 13.3 311 28.3
2010-11-29 08:58:25 51°23.779 2°46.011 305.7 13.6 311 29
2010-11-29 08:59:24 51°23.906 2°45.728 304.6 13.2 308 28
2010-11-29 09:00:25 51°24.042 2°45.439 305.4 13.1 305 27.6
2010-11-29 09:01:24 51°24.167 2°45.156 302.6 13.3 303 27.7
2010-11-29 09:02:25 51°24.282 2°44.85 298.4 12.5 301 25.8
2010-11-29 09:03:24 51°24.365 2°44.606 296.1 8.8 296 27
2010-11-29 09:04:24 51°24.431 2°44.417 295.7 7.8 301 27.7
2010-11-29 09:05:25 51°24.476 2°44.232 274.3 7 278 20.1
2010-11-29 09:06:24 51°24.493 2°44.053 277.3 6.9 280 22.5
2010-11-29 09:07:25 51°24.533 2°43.905 294.8 5.4 300 25.6
2010-11-29 09:08:25 51°24.575 2°43.805 301.3 4.1 308 26.8
2010-11-29 09:09:25 51°24.613 2°43.737 313.6 3 319 25
2010-11-29 09:10:24 51°24.648 2°43.698 334 2.8 340 22.7
2010-11-29 09:11:25 51°24.693 2°43.694 18.2 1.6 359 24.9
2010-11-29 09:12:26 51°24.692 2°43.683 11.4 1.8 207 -999
2010-11-29 09:13:28 51°24.656 2°43.679 341.9 2.4 159 -999
2010-11-29 09:14:28 51°24.63 2°43.697 318.6 0.5 281 -999
2010-11-29 09:15:26 51°24.663 2°43.676 358.3 2.9 349 4.9
2010-11-29 09:16:24 51°24.708 2°43.696 48.6 2.7 41 24.8
2010-11-29 09:17:24 51°24.724 2°43.728 87.6 0.8 25 22.8
2010-11-29 09:18:24 51°24.73 2°43.727 104.9 0.5 341 22.6
2010-11-29 09:19:25 51°24.73 2°43.725 128 0.5 118 23
2010-11-29 09:20:24 51°24.715 2°43.742 148.1 1 161 22.9
2010-11-29 09:21:24 51°24.691 2°43.746 175.7 1.2 188 23.5
2010-11-29 09:22:24 51°24.684 2°43.739 174.3 0.4 216 24
2010-11-29 09:23:25 51°24.681 2°43.733 153.9 0.2 243 23.2
2010-11-29 09:24:24 51°24.679 2°43.727 149.8 0.4 218 22.3
2010-11-29 09:25:25 51°24.675 2°43.722 146 0.3 237 21.5
2010-11-29 09:26:24 51°24.672 2°43.717 142.4 0.4 238 20.9
2010-11-29 09:27:25 51°24.67 2°43.708 143.4 0.5 254 21.7
2010-11-29 09:28:24 51°24.67 2°43.699 146.2 0.5 292 22.5
2010-11-29 09:29:24 51°24.672 2°43.687 153.4 0.5 307 21.9
2010-11-29 09:30:24 51°24.674 2°43.672 159 0.4 277 20.1
2010-11-29 09:31:24 51°24.66 2°43.69 119.6 2 109 20.7
2010-11-29 09:32:24 51°24.666 2°43.756 65.2 2.4 58 24.3
2010-11-29 09:33:24 51°24.677 2°43.766 41.1 0.7 249 22.2
2010-11-29 09:34:25 51°24.675 2°43.75 22.1 0.7 248 22.9
2010-11-29 09:35:24 51°24.674 2°43.733 5.2 0.8 265 23.9
2010-11-29 09:36:25 51°24.672 2°43.72 346.3 0.4 243 21.3
2010-11-29 09:37:24 51°24.668 2°43.71 328.7 0.4 238 21
2010-11-29 09:38:24 51°24.665 2°43.702 313.7 0.2 286 22.1
2010-11-29 09:39:24 51°24.664 2°43.693 306.6 0.6 259 21.5
2010-11-29 09:40:24 51°24.663 2°43.682 304.9 0.6 252 20.1
2010-11-29 09:41:25 51°24.664 2°43.671 306.3 0.3 257 20.2
2010-11-29 09:42:24 51°24.665 2°43.659 310.1 0.2 266 22
2010-11-29 09:43:25 51°24.654 2°43.668 302.4 1.5 139 4.8
2010-11-29 09:44:24 51°24.646 2°43.689 286.1 0.6 122 21.9
2010-11-29 09:45:25 51°24.643 2°43.707 276.8 0.8 99 23.4
2010-11-29 09:46:25 51°24.644 2°43.742 260.7 1.7 89 25.4
2010-11-29 09:47:24 51°24.648 2°43.755 262.4 1.1 277 24.8
2010-11-29 09:48:24 51°24.654 2°43.715 296.7 0.5 265 24.9
2010-11-29 09:49:26 51°24.649 2°43.716 294.8 1.5 297 24.9
2010-11-29 09:50:25 51°24.679 2°43.672 340.6 3.4 341 20.9
2010-11-29 09:51:24 51°24.709 2°43.659 10.8 0.6 307 22.1
2010-11-29 09:52:25 51°24.72 2°43.646 19.5 2 4 21.9
2010-11-29 09:53:24 51°24.745 2°43.694 87.9 2.4 92 23.5
2010-11-29 09:54:25 51°24.718 2°43.747 144.2 2.7 150 22
2010-11-29 09:55:24 51°24.69 2°43.768 145.2 0.7 199 22.3
2010-11-29 09:56:24 51°24.687 2°43.758 151.1 0.6 243 22.8
2010-11-29 09:57:25 51°24.683 2°43.747 145.2 0.2 250 22.1
2010-11-29 09:58:25 51°24.679 2°43.734 144.2 0.8 244 22.4
2010-11-29 09:59:24 51°24.677 2°43.721 145.9 0.4 230 20.8
2010-11-29 10:00:24 51°24.673 2°43.711 142.1 0.5 227 20.9
2010-11-29 10:01:25 51°24.667 2°43.703 139.9 0.6 240 21.8
2010-11-29 10:02:24 51°24.663 2°43.695 138 0.5 232 22
2010-11-29 10:03:25 51°24.659 2°43.683 139.4 0.8 243 21
2010-11-29 10:04:24 51°24.653 2°43.673 134.4 0.7 172 22.5
2010-11-29 10:05:24 51°24.643 2°43.687 111 1 113 21.9
2010-11-29 10:06:24 51°24.648 2°43.734 60.6 2.1 52 25.4
2010-11-29 10:07:25 51°24.671 2°43.757 32.9 1.5 9 22.7
2010-11-29 10:08:25 51°24.677 2°43.748 2.6 0.8 237 22.4
2010-11-29 10:09:25 51°24.674 2°43.733 337.9 0.6 300 23.1
2010-11-29 10:10:25 51°24.678 2°43.712 327.9 0.8 278 23.6
2010-11-29 10:11:24 51°24.676 2°43.692 321.5 0.7 260 23.4
2010-11-29 10:12:24 51°24.674 2°43.676 315.6 0.7 255 20.4
2010-11-29 10:13:24 51°24.671 2°43.659 314.8 0.8 243 21.4
2010-11-29 10:14:25 51°24.667 2°43.641 312.7 0.3 254 21.9
2010-11-29 10:15:24 51°24.661 2°43.626 307.7 0.9 241 24
2010-11-29 10:16:24 51°24.657 2°43.611 302.8 0.6 248 23.7
2010-11-29 10:17:24 51°24.654 2°43.593 304.9 1 269 23.6
2010-11-29 10:18:25 51°24.679 2°43.545 329 3.3 330 20.9
2010-11-29 10:19:24 51°24.741 2°43.525 14 4.5 10 23.1
2010-11-29 10:20:24 51°24.853 2°43.597 30.7 9.4 29 23.1
2010-11-29 10:21:25 51°24.996 2°43.758 38.8 11.4 38 21
2010-11-29 10:22:24 51°25.145 2°43.96 41.9 12.6 40 21.7
2010-11-29 10:23:25 51°25.312 2°44.179 41 12.9 39 23.9
2010-11-29 10:24:25 51°25.476 2°44.396 40.7 12.5 39 24
2010-11-29 10:25:24 51°25.635 2°44.601 40 12.6 39 24.4
2010-11-29 10:26:25 51°25.8 2°44.821 42.8 12.6 42 23.2
2010-11-29 10:27:24 51°25.955 2°45.038 42.5 12.6 42 25.6
2010-11-29 10:28:25 51°26.117 2°45.262 42.5 12.8 40 26.2
2010-11-29 10:29:24 51°26.272 2°45.48 42.6 12.6 41 27.1
2010-11-29 10:30:24 51°26.432 2°45.703 42.9 12.7 41 26
2010-11-29 10:31:24 51°26.59 2°45.926 42.2 12.3 42 27.6
2010-11-29 10:32:25 51°26.752 2°46.151 43 12.8 40 30.6
2010-11-29 10:33:24 51°26.909 2°46.369 42.4 12.6 41 29
2010-11-29 10:34:25 51°27.071 2°46.594 42 12.6 40 30
2010-11-29 10:35:25 51°27.23 2°46.812 42.5 12.7 41 30.6
2010-11-29 10:36:24 51°27.386 2°47.031 41.8 12.6 42 29.8
2010-11-29 10:37:25 51°27.547 2°47.257 42.3 12.6 41 29
2010-11-29 10:38:24 51°27.705 2°47.475 42.2 12.8 42 29.5
2010-11-29 10:39:25 51°27.866 2°47.699 42.2 12.6 42 29.6
2010-11-29 10:40:24 51°28.02 2°47.915 42.8 12.6 41 29.8
2010-11-29 10:41:25 51°28.183 2°48.14 41.8 12.7 41 32.2
2010-11-29 10:42:25 51°28.341 2°48.359 42.5 12.4 40 28.5
2010-11-29 10:43:24 51°28.495 2°48.573 42.2 12.5 42 26.9
2010-11-29 10:44:25 51°28.655 2°48.793 42.2 12.4 39 31.9
2010-11-29 10:45:24 51°28.812 2°49.005 42.2 12.6 41 28
2010-11-29 10:46:25 51°28.977 2°49.224 42.9 12.7 41 27.3
2010-11-29 10:47:24 51°29.136 2°49.436 42.2 12.5 40 27
2010-11-29 10:48:25 51°29.3 2°49.659 42.3 12.6 39 28.9
2010-11-29 10:49:25 51°29.461 2°49.88 42.1 12.9 43 27.9
2010-11-29 10:50:24 51°29.622 2°50.097 43.6 12.7 41 29.3
2010-11-29 10:51:24 51°29.783 2°50.322 43.5 12.8 42 27
2010-11-29 10:52:25 51°29.947 2°50.553 43.1 12.9 41 28.2
2010-11-29 10:53:25 51°30.109 2°50.781 43.2 12.9 43 21.4
2010-11-29 10:54:24 51°30.267 2°51.001 43.3 13 42 19.7
2010-11-29 10:55:24 51°30.428 2°51.226 42.7 12.9 40 19.1
2010-11-29 10:56:24 51°30.588 2°51.452 42.8 12.6 43 20
2010-11-29 10:57:24 51°30.75 2°51.678 43.4 13.2 40 20.9
2010-11-29 10:58:24 51°30.911 2°51.909 45.9 12.7 46 20
2010-11-29 10:59:25 51°31.043 2°52.152 52.1 9 49 21.2
2010-11-29 11:00:25 51°31.122 2°52.277 47.8 5.3 45 20.9
2010-11-29 11:01:24 51°31.175 2°52.366 47.8 4.3 41 18.9
2010-11-29 11:02:24 51°31.223 2°52.43 50 3.4 38 20.9
2010-11-29 11:03:25 51°31.245 2°52.465 55.8 0.4 344 19.4
2010-11-29 11:04:25 51°31.245 2°52.448 64.7 0.7 267 -999
2010-11-29 11:05:24 51°31.245 2°52.428 66.6 0.6 253 18.5
2010-11-29 11:06:25 51°31.243 2°52.41 70.5 0.4 275 20.3
2010-11-29 11:07:24 51°31.241 2°52.403 80.7 0.3 215 20.6
2010-11-29 11:08:24 51°31.241 2°52.408 82.5 0.2 21 20.2
2010-11-29 11:09:25 51°31.241 2°52.409 80.9 0.1 273 20.4
2010-11-29 11:10:25 51°31.24 2°52.404 79.3 0.3 203 21
2010-11-29 11:11:24 51°31.241 2°52.405 75 0.1 9 20.7
2010-11-29 11:12:24 51°31.241 2°52.405 67.7 0.2 325 20.8
2010-11-29 11:13:25 51°31.24 2°52.404 67.2 0.1 162 20.6
2010-11-29 11:14:24 51°31.24 2°52.404 66.5 0.2 338 20.6
2010-11-29 11:15:24 51°31.241 2°52.405 63.6 0.1 328 20
2010-11-29 11:16:24 51°31.241 2°52.404 68.3 0.2 224 20.4
2010-11-29 11:17:25 51°31.239 2°52.404 74.7 0.2 149 20.8
2010-11-29 11:18:25 51°31.238 2°52.407 72.2 0.2 132 20.7
2010-11-29 11:19:24 51°31.236 2°52.404 69.7 0.3 257 21.1
2010-11-29 11:20:25 51°31.234 2°52.406 73.6 0.3 112 21.7
2010-11-29 11:21:25 51°31.234 2°52.41 66.2 0.1 45 20.9
2010-11-29 11:22:24 51°31.232 2°52.405 63.1 0.5 267 20.5
2010-11-29 11:23:24 51°31.232 2°52.407 63 0.2 52 20.8
2010-11-29 11:24:25 51°31.234 2°52.409 52.5 0.2 2 21
2010-11-29 11:25:24 51°31.236 2°52.408 45.8 0.2 92 20.8
2010-11-29 11:26:24 51°31.235 2°52.404 55.2 0.3 239 20.4
2010-11-29 11:27:25 51°31.234 2°52.406 70.9 0.2 69 20.4
2010-11-29 11:28:25 51°31.236 2°52.41 69.3 0.1 7 20.3
2010-11-29 11:29:24 51°31.235 2°52.408 62.9 0.1 276 20.8
2010-11-29 11:30:24 51°31.232 2°52.404 65.6 0.1 174 20.9
2010-11-29 11:31:25 51°31.233 2°52.409 64.3 0.4 107 21.3
2010-11-29 11:32:24 51°31.233 2°52.411 62.8 0.1 128 21.4
2010-11-29 11:33:24 51°31.232 2°52.409 53.8 0.3 204 20.9
2010-11-29 11:34:24 51°31.232 2°52.405 53.2 0.1 264 20.6
2010-11-29 11:35:25 51°31.234 2°52.409 54.9 0.3 52 21.1
2010-11-29 11:36:24 51°31.234 2°52.411 56.3 0.2 161 20.4
2010-11-29 11:37:24 51°31.235 2°52.409 58.6 0.3 310 20.5
2010-11-29 11:38:25 51°31.233 2°52.405 60.3 0.3 221 21
2010-11-29 11:39:24 51°31.23 2°52.407 66.5 0.1 126 20.8
2010-11-29 11:40:24 51°31.231 2°52.413 61.2 0.3 60 21.1
2010-11-29 11:41:24 51°31.234 2°52.413 50.7 0.3 319 20.2
2010-11-29 11:42:25 51°31.234 2°52.409 48.1 0.2 249 20.5
2010-11-29 11:43:25 51°31.235 2°52.407 59.3 0.3 77 20.9
2010-11-29 11:44:25 51°31.233 2°52.409 70.5 0.4 142 21.1
2010-11-29 11:45:24 51°31.231 2°52.411 72.1 0.3 140 21
2010-11-29 11:46:24 51°31.231 2°52.412 63.9 0.1 316 21.3
2010-11-29 11:47:25 51°31.23 2°52.41 56 0.2 306 20.9
2010-11-29 11:48:24 51°31.229 2°52.409 48.8 0.3 107 21
2010-11-29 11:49:24 51°31.228 2°52.409 53.3 0.3 157 20.9
2010-11-29 11:50:24 51°31.229 2°52.411 57.3 0.5 130 21.3
2010-11-29 11:51:24 51°31.229 2°52.412 53.1 0.5 144 21.2
2010-11-29 11:52:24 51°31.228 2°52.407 50.2 0.2 174 21.1
2010-11-29 11:53:24 51°31.23 2°52.412 53.9 0.2 9 21.2
2010-11-29 11:54:24 51°31.232 2°52.412 55.9 0.2 343 21
2010-11-29 11:55:24 51°31.228 2°52.41 62 0.3 177 21.2
2010-11-29 11:56:24 51°31.228 2°52.41 60.5 0.1 60 20.6
2010-11-29 11:57:24 51°31.229 2°52.413 55.7 0.2 113 21.6
2010-11-29 11:58:24 51°31.227 2°52.41 59.9 0.2 310 20.8
2010-11-29 11:59:24 51°31.227 2°52.413 57.1 0.2 17 21
2010-11-29 12:00:24 51°31.227 2°52.416 60.8 0.3 120 21.1
2010-11-29 12:01:24 51°31.224 2°52.415 60.1 0.4 290 20.7
2010-11-29 12:02:24 51°31.224 2°52.415 51 0.2 47 21.1
2010-11-29 12:03:24 51°31.225 2°52.417 47.3 0.2 125 21.2
2010-11-29 12:04:24 51°31.224 2°52.415 47.7 0.2 206 21.4
2010-11-29 12:05:24 51°31.223 2°52.414 51.7 0.1 56 21.1
2010-11-29 12:06:24 51°31.225 2°52.414 49.5 0.1 5 21
2010-11-29 12:07:24 51°31.224 2°52.412 56.5 0.2 248 21.2
2010-11-29 12:08:24 51°31.224 2°52.414 55.4 0.2 270 20.7
2010-11-29 12:09:24 51°31.222 2°52.415 53.2 0.1 290 21.1
2010-11-29 12:10:24 51°31.224 2°52.417 47.3 0.2 73 21.3
2010-11-29 12:11:24 51°31.224 2°52.416 44.4 0.1 173 21.1
2010-11-29 12:12:24 51°31.224 2°52.414 48 0.2 86 21.3
2010-11-29 12:13:24 51°31.224 2°52.413 50 0.1 284 21.4
2010-11-29 12:14:24 51°31.224 2°52.415 55.9 0.1 338 21.2
2010-11-29 12:15:24 51°31.224 2°52.417 51.9 0.1 190 21
2010-11-29 12:16:24 51°31.222 2°52.413 51.7 0.3 184 21.5
2010-11-29 12:17:24 51°31.222 2°52.415 46.9 0.1 8 20.9
2010-11-29 12:18:24 51°31.223 2°52.417 45.4 0.2 44 21.1
2010-11-29 12:19:24 51°31.222 2°52.416 48.8 0.3 170 21.5
2010-11-29 12:20:24 51°31.221 2°52.419 53.1 0.4 90 21.7
2010-11-29 12:21:24 51°31.222 2°52.422 55 0.2 2 20.8
2010-11-29 12:22:24 51°31.22 2°52.42 53.8 0.4 294 20.7
2010-11-29 12:23:24 51°31.221 2°52.418 50.6 0.1 20 21.1
2010-11-29 12:24:24 51°31.223 2°52.419 50.1 0.1 203 20.8
2010-11-29 12:25:24 51°31.222 2°52.418 50.9 0.2 138 21
2010-11-29 12:26:24 51°31.221 2°52.417 49.8 0.4 327 21.5
2010-11-29 12:27:24 51°31.222 2°52.419 45.1 0.2 10 21.3
2010-11-29 12:28:24 51°31.219 2°52.419 49.7 0.4 160 21.5
2010-11-29 12:29:24 51°31.219 2°52.421 49.7 0.2 124 21.2
2010-11-29 12:30:24 51°31.22 2°52.424 47.7 0.2 64 20.7
2010-11-29 12:31:24 51°31.224 2°52.429 42.2 0.7 55 21.3
2010-11-29 12:32:24 51°31.234 2°52.443 41.7 0.8 64 19.6
2010-11-29 12:33:24 51°31.24 2°52.455 46.2 0.3 69 17.5
2010-11-29 12:34:24 51°31.237 2°52.457 54.4 0.3 234 18.2
2010-11-29 12:35:24 51°31.228 2°52.452 63.2 0.6 206 20.8
2010-11-29 12:36:24 51°31.227 2°52.465 60 1.6 63 20.5
2010-11-29 12:37:24 51°31.271 2°52.566 52.1 7.5 52 20.9
2010-11-29 12:38:24 51°31.362 2°52.775 53.8 10.9 55 21.4
2010-11-29 12:39:24 51°31.475 2°53.034 53.2 12.1 55 21.1
2010-11-29 12:40:24 51°31.593 2°53.296 53.1 12.1 53 21.2
2010-11-29 12:41:24 51°31.709 2°53.558 53.8 12.1 56 21.6
2010-11-29 12:42:24 51°31.826 2°53.82 52.5 12.2 54 20
2010-11-29 12:43:24 51°31.942 2°54.083 53.1 12.1 53 20.3
2010-11-29 12:44:24 51°32.059 2°54.347 53.6 12 56 21.5
2010-11-29 12:45:24 51°32.173 2°54.607 53.1 12.2 54 20.1
2010-11-29 12:46:24 51°32.286 2°54.872 53.5 12.2 56 22.8
2010-11-29 12:47:24 51°32.401 2°55.138 53.6 12 55 20.6
2010-11-29 12:48:24 51°32.504 2°55.385 53.1 9.2 57 22.7
2010-11-29 12:49:24 51°32.571 2°55.547 53.7 5.4 54 23.5
2010-11-29 12:50:24 51°32.619 2°55.559 340 1.9 313 20
2010-11-29 12:51:24 51°32.631 2°55.519 330.5 1.4 272 22.4
2010-11-29 12:52:24 51°32.632 2°55.486 334.7 1.1 262 23.4
2010-11-29 12:53:24 51°32.628 2°55.456 337.7 1.2 248 23.7
2010-11-29 12:54:24 51°32.618 2°55.429 339.7 1.3 236 22.5
2010-11-29 12:55:24 51°32.605 2°55.403 344.8 1.4 226 21.7
2010-11-29 12:56:24 51°32.589 2°55.377 346.4 1.5 219 23.3
2010-11-29 12:57:24 51°32.57 2°55.351 345 1.6 213 23.1
2010-11-29 12:58:24 51°32.547 2°55.325 334 1.4 240 22.8
2010-11-29 12:59:24 51°32.564 2°55.292 1.8 2.4 349 22.5
2010-11-29 13:00:24 51°32.602 2°55.326 41.5 3.2 43 23.8
2010-11-29 13:01:24 51°32.654 2°55.384 29.8 3.7 25 22.8
2010-11-29 13:02:24 51°32.694 2°55.407 20.4 2.2 9 23.9
2010-11-29 13:03:24 51°32.715 2°55.429 48.7 1.5 71 21
2010-11-29 13:04:24 51°32.715 2°55.464 72.7 1.4 114 24.6
2010-11-29 13:05:24 51°32.705 2°55.495 86.8 1.5 137 24.9
2010-11-29 13:06:24 51°32.685 2°55.523 105.4 1.8 148 24.4
2010-11-29 13:07:24 51°32.662 2°55.543 99.2 1.4 161 22.6
2010-11-29 13:08:24 51°32.645 2°55.542 90.4 0.9 196 20.9
2010-11-29 13:09:24 51°32.623 2°55.536 87.2 1.5 195 22.1
2010-11-29 13:10:24 51°32.606 2°55.521 83.2 1.3 211 24.1
2010-11-29 13:11:24 51°32.588 2°55.498 77.4 1.5 222 23.4
2010-11-29 13:12:24 51°32.57 2°55.47 72.6 1.6 221 20.7
2010-11-29 13:13:24 51°32.552 2°55.438 65.5 1.7 225 22.6
2010-11-29 13:14:24 51°32.529 2°55.403 69.7 1.9 226 21.7
2010-11-29 13:15:24 51°32.508 2°55.364 68.7 2.1 230 21.8
2010-11-29 13:16:24 51°32.487 2°55.321 58 2.2 233 19.3
2010-11-29 13:17:24 51°32.463 2°55.277 51.1 2.3 226 22.1
2010-11-29 13:18:24 51°32.435 2°55.234 48 2.3 223 21.3
2010-11-29 13:19:24 51°32.414 2°55.199 42.1 1.2 228 22.1
2010-11-29 13:20:24 51°32.432 2°55.217 32.6 3.5 29 19.7
2010-11-29 13:21:24 51°32.487 2°55.287 49.4 4.8 55 21.6
2010-11-29 13:22:24 51°32.548 2°55.395 37.9 5.7 38 22.8
2010-11-29 13:23:24 51°32.628 2°55.481 35.6 5.6 36 23.7
2010-11-29 13:24:24 51°32.695 2°55.538 14.7 2.7 5 26.8
2010-11-29 13:25:24 51°32.72 2°55.52 353.2 1.4 314 27.1
2010-11-29 13:26:24 51°32.728 2°55.49 350.7 1 264 26.6
2010-11-29 13:27:24 51°32.725 2°55.462 357.9 1.1 248 26
2010-11-29 13:28:24 51°32.712 2°55.434 4.3 1.6 228 20.4
2010-11-29 13:29:24 51°32.694 2°55.405 10.2 1.6 221 23.8
2010-11-29 13:30:24 51°32.674 2°55.375 13.1 2 220 23.5
2010-11-29 13:31:24 51°32.647 2°55.343 9.1 2.1 216 22.7
2010-11-29 13:32:24 51°32.62 2°55.313 358.8 2 211 24.7
2010-11-29 13:33:24 51°32.59 2°55.284 347.6 2 209 23.8
2010-11-29 13:34:24 51°32.562 2°55.255 339.8 2 211 20.5
2010-11-29 13:35:24 51°32.534 2°55.23 329.8 1.8 213 23.1
2010-11-29 13:36:24 51°32.527 2°55.195 350 1.2 289 23.2
2010-11-29 13:37:24 51°32.553 2°55.202 35.2 3.8 32 20.6
2010-11-29 13:38:25 51°32.667 2°55.306 36.7 9.9 43 24
2010-11-29 13:39:24 51°32.732 2°55.54 80.9 8.5 90 27
2010-11-29 13:40:24 51°32.683 2°55.669 128.3 4.7 152 26.5
2010-11-29 13:41:24 51°32.606 2°55.66 205.1 5.3 211 23.6
2010-11-29 13:42:24 51°32.568 2°55.511 278.2 6.9 271 23.4
2010-11-29 13:43:24 51°32.583 2°55.364 295.6 5.4 282 23.8
2010-11-29 13:44:24 51°32.598 2°55.202 285.3 5.6 271 22.2
2010-11-29 13:45:24 51°32.585 2°55.08 267.9 4 250 22.2
2010-11-29 13:46:24 51°32.558 2°54.992 254.1 3.5 235 22.5
2010-11-29 13:47:24 51°32.529 2°54.922 243.2 3.1 234 23.5
2010-11-29 13:48:24 51°32.499 2°54.865 235.1 2.7 233 20.4
2010-11-29 13:49:24 51°32.461 2°54.782 251.9 6.4 254 23.5
2010-11-29 13:50:24 51°32.492 2°54.636 335.4 4.9 328 23.1
2010-11-29 13:51:24 51°32.553 2°54.662 51.7 4.4 60 23.8
2010-11-29 13:52:24 51°32.606 2°54.803 48.3 7.8 50 23.5
2010-11-29 13:53:24 51°32.687 2°54.997 54.2 9.2 57 24.8
2010-11-29 13:54:24 51°32.739 2°55.228 72.4 9.3 82 23.6
2010-11-29 13:55:24 51°32.756 2°55.45 80.6 6.9 92 26.2
2010-11-29 13:56:24 51°32.716 2°55.575 129.9 4.5 152 27.8
2010-11-29 13:57:24 51°32.653 2°55.585 176.6 3.3 191 25.3
2010-11-29 13:58:24 51°32.604 2°55.555 191.2 2.9 205 22.8
2010-11-29 13:59:24 51°32.564 2°55.524 189.5 2.5 209 23.2
2010-11-29 14:00:24 51°32.527 2°55.493 187.3 2.4 208 22.6
2010-11-29 14:01:24 51°32.494 2°55.464 183.4 2.4 208 22.8
2010-11-29 14:02:24 51°32.455 2°55.436 171.4 2.8 203 23.7
2010-11-29 14:03:24 51°32.415 2°55.423 142.9 2.5 189 21
2010-11-29 14:04:24 51°32.38 2°55.423 113.9 2 168 21.1
2010-11-29 14:05:24 51°32.358 2°55.442 72.8 1.3 131 21.6
2010-11-29 14:06:24 51°32.357 2°55.451 24.1 0.6 341 21.1
2010-11-29 14:07:24 51°32.374 2°55.44 5.2 2 339 19.8
2010-11-29 14:08:24 51°32.413 2°55.437 19 2.6 12 22.4
2010-11-29 14:09:24 51°32.453 2°55.465 26.2 2.8 21 23.6
2010-11-29 14:10:24 51°32.501 2°55.49 24 3 24 23
2010-11-29 14:11:24 51°32.539 2°55.533 31.9 2.3 31 22.4
2010-11-29 14:12:24 51°32.563 2°55.538 7.3 1.1 341 23.9
2010-11-29 14:13:24 51°32.575 2°55.524 10.2 0.7 315 23.6
2010-11-29 14:14:24 51°32.585 2°55.512 13.1 0.7 287 23.3
2010-11-29 14:15:24 51°32.595 2°55.49 354.6 1.7 322 23.8
2010-11-29 14:16:24 51°32.631 2°55.454 348.1 3.1 327 24
2010-11-29 14:17:24 51°32.649 2°55.396 319.4 2.3 278 23.4
2010-11-29 14:18:24 51°32.651 2°55.333 311.1 2.3 277 23.1
2010-11-29 14:19:24 51°32.648 2°55.276 313.8 1.9 256 24.1
2010-11-29 14:20:24 51°32.639 2°55.233 317.3 1.6 245 23.5
2010-11-29 14:21:24 51°32.626 2°55.197 322.3 1.6 233 20.6
2010-11-29 14:22:24 51°32.609 2°55.163 322.6 1.4 226 23
2010-11-29 14:23:24 51°32.589 2°55.132 319.4 1.7 219 23.4
2010-11-29 14:24:24 51°32.566 2°55.102 316.7 1.8 219 22.4
2010-11-29 14:25:24 51°32.548 2°55.063 296 2 235 20.2
2010-11-29 14:26:24 51°32.529 2°55.024 295.8 1.9 224 22.6
2010-11-29 14:27:24 51°32.51 2°54.986 301.4 2 251 23.2
2010-11-29 14:28:24 51°32.535 2°54.944 13.1 2.8 9 24.3
2010-11-29 14:29:24 51°32.575 2°55.024 55.4 5.5 60 21.4
2010-11-29 14:30:24 51°32.563 2°55.174 116.2 7.2 136 22.1
2010-11-29 14:31:24 51°32.42 2°55.187 184.9 10.9 190 22.9
2010-11-29 14:32:24 51°32.216 2°55.145 178 13.4 184 22.8
2010-11-29 14:33:24 51°31.98 2°55.095 182.5 14.5 188 21.6
2010-11-29 14:34:24 51°31.746 2°55.037 183.3 14.4 188 20.6
2010-11-29 14:35:24 51°31.506 2°54.989 183.6 15.1 185 18.8
2010-11-29 14:36:24 51°31.268 2°54.935 183.7 14.1 191 18.1
2010-11-29 14:37:24 51°31.028 2°54.894 179 14.7 185 18.4
2010-11-29 14:38:24 51°30.791 2°54.838 185.2 14.6 186 25.9
2010-11-29 14:39:24 51°30.558 2°54.777 182.8 13.5 189 34.6
2010-11-29 14:40:24 51°30.333 2°54.714 183.1 14.1 189 34.3
2010-11-29 14:41:24 51°30.105 2°54.649 183.7 14 191 33.9
2010-11-29 14:42:24 51°29.877 2°54.596 183 13.9 187 32.1
2010-11-29 14:43:24 51°29.645 2°54.532 183.1 14.4 191 30.1
2010-11-29 14:44:24 51°29.414 2°54.475 182.3 14.4 190 29.5
2010-11-29 14:45:24 51°29.183 2°54.425 181.1 14.4 191 27.7
2010-11-29 14:46:24 51°28.952 2°54.376 180.7 14.4 184 26.2
2010-11-29 14:47:24 51°28.724 2°54.34 180.8 13.9 181 25.4
2010-11-29 14:48:24 51°28.493 2°54.288 182.5 14.2 189 22.9
2010-11-29 14:49:24 51°28.263 2°54.236 182.1 14.3 187 20.5
2010-11-29 14:50:24 51°28.032 2°54.179 182.6 14.2 188 21.1
2010-11-29 14:51:24 51°27.798 2°54.126 181.4 14.4 189 22.5
2010-11-29 14:52:24 51°27.57 2°54.077 181.5 13.3 188 25.4
2010-11-29 14:53:24 51°27.344 2°54.027 179.1 14 186 24.7
2010-11-29 14:54:24 51°27.118 2°54 177.6 13.6 184 24.6
2010-11-29 14:55:24 51°26.891 2°54.002 175.7 14 180 25.3
2010-11-29 14:56:24 51°26.665 2°53.972 178.6 14.2 182 32.5
2010-11-29 14:57:24 51°26.437 2°53.946 178.6 13.8 183 32.7
2010-11-29 14:58:24 51°26.212 2°53.933 177.1 13.5 187 30.1
2010-11-29 14:59:24 51°25.983 2°53.926 176.2 13.9 179 25.5
2010-11-29 15:00:24 51°25.756 2°53.9 177.2 13.3 184 24.3
2010-11-29 15:01:24 51°25.525 2°53.847 184.4 14.1 185 22
2010-11-29 15:02:24 51°25.295 2°53.806 180.2 14 186 20.1
2010-11-29 15:03:24 51°25.064 2°53.758 181.5 13.2 189 20.9
2010-11-29 15:04:24 51°24.833 2°53.706 181.8 13.8 189 19
2010-11-29 15:05:24 51°24.604 2°53.654 184.7 14.1 190 17.2
2010-11-29 15:06:24 51°24.372 2°53.601 182.1 14.2 192 18
2010-11-29 15:07:24 51°24.146 2°53.548 182 13.3 189 20.7
2010-11-29 15:08:24 51°23.919 2°53.484 184.8 13.6 191 21.9
2010-11-29 15:09:24 51°23.694 2°53.412 181.5 13.8 188 21.8
2010-11-29 15:10:24 51°23.472 2°53.334 187.1 13.9 192 21.7
2010-11-29 15:11:24 51°23.249 2°53.246 188.1 13.8 195 21.2
2010-11-29 15:12:24 51°23.022 2°53.166 188 13.7 194 23.3
2010-11-29 15:13:24 51°22.797 2°53.094 187.1 13.6 189 23.3
2010-11-29 15:14:24 51°22.574 2°53.012 186.6 13.5 191 23.4
2010-11-29 15:15:24 51°22.352 2°52.934 184.7 13.4 192 24.6
2010-11-29 15:16:24 51°22.132 2°52.859 187.1 13.7 195 24.3
2010-11-29 15:17:24 51°21.912 2°52.786 186 13.6 192 22.8
2010-11-29 15:18:24 51°21.69 2°52.728 179 13.6 185 20.4
2010-11-29 15:19:24 51°21.466 2°52.709 176.4 13.6 183 18.4
2010-11-29 15:20:24 51°21.24 2°52.692 178.7 14 186 17.6
2010-11-29 15:21:24 51°21.015 2°52.673 178.1 13.7 183 15.5
2010-11-29 15:22:24 51°20.795 2°52.652 178.4 13 186 15.7
2010-11-29 15:23:24 51°20.571 2°52.632 178.2 13.3 181 16.3
2010-11-29 15:24:24 51°20.35 2°52.605 179.4 13.4 185 17.1
2010-11-29 15:25:24 51°20.13 2°52.583 177 13.6 183 17.3
2010-11-29 15:26:24 51°19.907 2°52.566 176.8 13.3 182 17
2010-11-29 15:27:24 51°19.684 2°52.55 178.3 13.2 182 16.5
2010-11-29 15:28:24 51°19.462 2°52.525 178 12.8 182 16
2010-11-29 15:29:24 51°19.237 2°52.508 175.9 13.7 183 15.4
2010-11-29 15:30:24 51°19.011 2°52.495 176.2 13.5 181 14.1
2010-11-29 15:31:24 51°18.786 2°52.496 175.3 13.7 179 13.2
2010-11-29 15:32:24 51°18.559 2°52.491 176.8 14.2 184 12.6
2010-11-29 15:33:24 51°18.335 2°52.477 177.2 13.4 183 12.1
2010-11-29 15:34:24 51°18.111 2°52.469 176.9 12.9 181 11.7
2010-11-29 15:35:24 51°17.887 2°52.463 173.6 13.2 178 11.6
2010-11-29 15:36:24 51°17.663 2°52.473 173.3 13.7 179 11.5
2010-11-29 15:37:24 51°17.44 2°52.511 167.3 13.4 171 11.6
2010-11-29 15:38:24 51°17.224 2°52.589 161 13 166 11.1
2010-11-29 15:39:24 51°17.016 2°52.702 153.1 13 157 11.2
2010-11-29 15:40:24 51°16.816 2°52.844 153.2 13.2 157 10.6
2010-11-29 15:41:24 51°16.614 2°52.987 154.1 13 160 12.7
2010-11-29 15:42:24 51°16.412 2°53.13 152 13.9 157 13.2
2010-11-29 15:43:24 51°16.215 2°53.272 153.5 12.7 153 13.1
2010-11-29 15:44:24 51°16.018 2°53.407 153.3 12.6 157 12.6
2010-11-29 15:45:24 51°15.825 2°53.55 151 13 152 12.4
2010-11-29 15:46:24 51°15.645 2°53.737 143 12.9 140 12.9
2010-11-29 15:47:24 51°15.481 2°53.955 139.4 13.2 143 12.2
2010-11-29 15:48:24 51°15.297 2°54.127 147.9 12.5 152 12.3
2010-11-29 15:49:24 51°15.116 2°54.313 148.7 12.4 151 12.5
2010-11-29 15:50:24 51°14.942 2°54.513 136.2 12.7 139 12.5
2010-11-29 15:51:24 51°14.78 2°54.739 143.5 12.9 142 13
2010-11-29 15:52:24 51°14.602 2°54.935 147.1 13.6 147 12.8
2010-11-29 15:53:24 51°14.419 2°55.115 143.3 12.7 148 12
2010-11-29 15:54:24 51°14.252 2°55.293 144.3 10.6 148 12.3
2010-11-29 15:55:27 51°14.112 2°55.425 148.5 8.7 152 12.6
2010-11-29 15:56:25 51°13.989 2°55.516 153 8.4 156 13
2010-11-29 15:57:24 51°13.87 2°55.599 153 7.5 154 12
2010-11-29 15:58:18 51°13.777 2°55.687 135.1 -999 144 11.6
2010-11-29 15:59:25 51°13.777 2°55.687 121.8 -999 329 12.6
2010-11-29 16:00:24 51°13.667 2°55.924 113.2 4.3 115 10.4
2010-11-29 16:01:24 51°13.66 2°55.96 111.4 0.2 262 9.1
2010-11-29 16:02:25 51°13.661 2°55.962 115.9 0.1 53 -999
2010-11-29 16:03:28 51°13.661 2°55.961 124.9 0.1 275 4.9
2010-11-29 16:04:28 51°13.662 2°55.961 124.1 -999 326 -999